Time;durP1;ratioP1;P1;durP2;ratioP2;P2;SDS_P1;SDS_P2;PMS_P1;PMS_P2;Temp;Humidity;BMP_temperature;BMP_pressure;BME280_temperature;BME280_humidity;BME280_pressure;Samples;Min_cycle;Max_cycle;Signal;HPM_P1;HPM_P2
2024/01/26 00:00:31;;;;;;;;;;;9.80;99.90;;;;;;2617277;46;19953;-70
2024/01/26 00:03:02;;;;;;;;;;;9.80;99.90;;;;;;2616815;54;19965;-71
2024/01/26 00:05:32;;;;;;;;;;;9.80;99.90;;;;;;2616944;54;19967;-71
2024/01/26 00:08:05;;;;;;;;;;;9.80;99.90;;;;;;2616877;54;19951;-71
2024/01/26 00:10:38;;;;;;;;;;;9.80;99.90;;;;;;2616340;47;19943;-71
2024/01/26 00:13:10;;;;;;;;;;;9.80;99.90;;;;;;2616812;47;20007;-72
2024/01/26 00:15:40;;;;;;;;;;;9.80;99.90;;;;;;2620359;54;20462;-73
2024/01/26 00:18:09;;;;;;;;;;;10.00;99.90;;;;;;2621079;54;19939;-72
2024/01/26 00:20:39;;;;;;;;;;;9.80;99.90;;;;;;2621720;47;19969;-71
2024/01/26 00:23:12;;;;;;;;;;;9.80;99.90;;;;;;2621817;47;19954;-71
2024/01/26 00:25:41;;;;;;;;;;;9.80;99.90;;;;;;2617319;49;19946;-71
2024/01/26 00:28:11;;;;;;;;;;;9.80;99.90;;;;;;2616706;47;20474;-72
2024/01/26 00:30:40;;;;;;;;;;;9.80;99.90;;;;;;2616649;54;20463;-72
2024/01/26 00:33:10;;;;;;;;;;;9.80;99.90;;;;;;2616865;54;19953;-71
2024/01/26 00:35:40;;;;;;;;;;;9.90;99.90;;;;;;2616367;47;19961;-72
2024/01/26 00:38:14;;;;;;;;;;;9.90;99.90;;;;;;2616645;47;19942;-72
2024/01/26 00:40:44;;;;;;;;;;;9.90;99.90;;;;;;2616028;54;19995;-72
2024/01/26 00:43:13;;;;;;;;;;;9.90;99.90;;;;;;2617045;47;19939;-71
2024/01/26 00:45:43;;;;;;;;;;;9.90;99.90;;;;;;2615999;47;19946;-72
2024/01/26 00:48:12;;;;;;;;;;;9.90;99.90;;;;;;2616825;47;19946;-72
2024/01/26 00:50:43;;;;;;;;;;;9.90;99.90;;;;;;2618062;39;20346;-72
2024/01/26 00:53:15;;;;;;;;;;;9.50;99.90;;;;;;2617253;47;19951;-71
2024/01/26 00:55:45;;;;;;;;;;;9.90;99.90;;;;;;2615028;47;19957;-70
2024/01/26 00:58:15;;;;;;;;;;;9.90;99.90;;;;;;2618346;47;19964;-71
2024/01/26 01:00:45;;;;;;;;;;;9.90;99.90;;;;;;2618901;54;20030;-72
2024/01/26 01:03:14;;;;;;;;;;;9.80;99.90;;;;;;2617747;47;19942;-72
2024/01/26 01:05:44;;;;;;;;;;;9.80;99.90;;;;;;2617428;54;19950;-71
2024/01/26 01:08:16;;;;;;;;;;;9.80;99.90;;;;;;2617213;54;19971;-71
2024/01/26 01:10:46;;;;;;;;;;;9.80;99.90;;;;;;2616554;47;19946;-72
2024/01/26 01:13:16;;;;;;;;;;;9.80;99.90;;;;;;2619345;47;19941;-72
2024/01/26 01:15:45;;;;;;;;;;;9.80;99.90;;;;;;2620031;47;19939;-72
2024/01/26 01:18:15;;;;;;;;;;;9.70;99.90;;;;;;2620405;46;19942;-72
2024/01/26 01:20:45;;;;;;;;;;;9.70;99.90;;;;;;2618937;46;19954;-73
2024/01/26 01:23:18;;;;;;;;;;;9.70;99.90;;;;;;2615659;47;19935;-73
2024/01/26 01:25:47;;;;;;;;;;;9.60;99.90;;;;;;2615991;54;19947;-73
2024/01/26 01:28:17;;;;;;;;;;;9.60;99.90;;;;;;2617744;50;19934;-73
2024/01/26 01:30:47;;;;;;;;;;;9.60;99.90;;;;;;2620965;39;20370;-71
2024/01/26 01:33:17;;;;;;;;;;;9.70;99.90;;;;;;2618279;46;19947;-71
2024/01/26 01:35:46;;;;;;;;;;;9.70;99.90;;;;;;2615625;47;19943;-72
2024/01/26 01:38:19;;;;;;;;;;;9.70;99.90;;;;;;2616829;54;20038;-73
2024/01/26 01:40:48;;;;;;;;;;;9.70;99.90;;;;;;2616350;47;19946;-74
2024/01/26 01:43:19;;;;;;;;;;;9.70;99.90;;;;;;2616924;54;19939;-72
2024/01/26 01:45:49;;;;;;;;;;;9.70;99.90;;;;;;2616439;39;20362;-72
2024/01/26 01:48:19;;;;;;;;;;;9.70;99.90;;;;;;2617194;54;19971;-73
2024/01/26 01:50:50;;;;;;;;;;;9.70;99.90;;;;;;2615685;54;19954;-73
2024/01/26 01:53:23;;;;;;;;;;;9.70;99.90;;;;;;2616503;47;19977;-74
2024/01/26 01:55:53;;;;;;;;;;;9.70;99.90;;;;;;2616027;54;19957;-73
2024/01/26 01:58:23;;;;;;;;;;;9.70;99.90;;;;;;2615837;39;20321;-74
2024/01/26 02:00:53;;;;;;;;;;;9.70;99.90;;;;;;2616904;54;19943;-73
2024/01/26 02:03:26;;;;;;;;;;;9.70;99.90;;;;;;2618237;54;19938;-73
2024/01/26 02:05:55;;;;;;;;;;;9.60;99.90;;;;;;2618973;54;19947;-74
2024/01/26 02:08:28;;;;;;;;;;;9.60;99.90;;;;;;2622047;54;19935;-74
2024/01/26 02:10:57;;;;;;;;;;;9.80;99.90;;;;;;2622048;47;19946;-73
2024/01/26 02:13:27;;;;;;;;;;;9.60;99.90;;;;;;2622767;39;20101;-74
2024/01/26 02:15:56;;;;;;;;;;;9.70;99.90;;;;;;2619175;47;19946;-73
2024/01/26 02:18:26;;;;;;;;;;;9.60;99.90;;;;;;2617201;47;19945;-73
2024/01/26 02:20:56;;;;;;;;;;;9.60;99.90;;;;;;2617351;47;19942;-74
2024/01/26 02:23:28;;;;;;;;;;;9.60;99.90;;;;;;2616903;54;19943;-74
2024/01/26 02:25:58;;;;;;;;;;;9.60;99.90;;;;;;2617045;39;20409;-74
2024/01/26 02:28:28;;;;;;;;;;;9.60;99.90;;;;;;2616229;54;20466;-75
2024/01/26 02:30:57;;;;;;;;;;;9.70;99.90;;;;;;2616375;47;19939;-74
2024/01/26 02:33:27;;;;;;;;;;;9.70;99.90;;;;;;2616324;47;19946;-73
2024/01/26 02:35:57;;;;;;;;;;;9.70;99.90;;;;;;2616741;47;20279;-74
2024/01/26 02:38:29;;;;;;;;;;;9.70;99.90;;;;;;2616467;54;19972;-75
2024/01/26 02:40:58;;;;;;;;;;;9.70;99.90;;;;;;2615977;47;19998;-75
2024/01/26 02:43:28;;;;;;;;;;;9.70;99.90;;;;;;2616247;47;19946;-74
2024/01/26 02:45:58;;;;;;;;;;;9.60;99.90;;;;;;2616501;47;19947;-73
2024/01/26 02:48:27;;;;;;;;;;;9.60;99.90;;;;;;2616991;54;19954;-74
2024/01/26 02:50:57;;;;;;;;;;;9.60;99.90;;;;;;2615731;47;19969;-74
2024/01/26 02:53:29;;;;;;;;;;;9.60;99.90;;;;;;2616637;47;19950;-73
2024/01/26 02:55:59;;;;;;;;;;;9.70;99.90;;;;;;2616488;39;20363;-74
2024/01/26 02:58:29;;;;;;;;;;;8.60;99.90;;;;;;2617932;47;20141;-74
2024/01/26 03:00:58;;;;;;;;;;;9.70;99.90;;;;;;2624266;54;20466;-74
2024/01/26 03:03:28;;;;;;;;;;;9.80;99.90;;;;;;2622200;47;19947;-73
2024/01/26 03:05:58;;;;;;;;;;;9.70;99.90;;;;;;2621645;39;20380;-73
2024/01/26 03:08:31;;;;;;;;;;;9.70;99.90;;;;;;2621699;54;19996;-73
2024/01/26 03:11:01;;;;;;;;;;;9.70;99.90;;;;;;2622338;54;19954;-75
2024/01/26 03:13:30;;;;;;;;;;;9.70;99.90;;;;;;2623602;54;19980;-74
2024/01/26 03:16:00;;;;;;;;;;;9.70;99.90;;;;;;2622383;54;19939;-74
2024/01/26 03:18:29;;;;;;;;;;;9.70;99.90;;;;;;2619911;39;20380;-74
2024/01/26 03:20:59;;;;;;;;;;;9.70;99.90;;;;;;2622121;39;20432;-73
2024/01/26 03:23:31;;;;;;;;;;;9.70;99.90;;;;;;2620449;46;20017;-74
2024/01/26 03:26:01;;;;;;;;;;;9.70;99.90;;;;;;2617858;39;20333;-73
2024/01/26 03:28:31;;;;;;;;;;;9.70;99.90;;;;;;2617627;54;19942;-74
2024/01/26 03:31:00;;;;;;;;;;;9.70;99.90;;;;;;2617748;54;19977;-74
2024/01/26 03:33:30;;;;;;;;;;;9.80;99.90;;;;;;2616983;47;20049;-73
2024/01/26 03:36:00;;;;;;;;;;;9.70;99.90;;;;;;2616905;54;19947;-73
2024/01/26 03:38:32;;;;;;;;;;;9.80;99.90;;;;;;2617266;54;19950;-73
2024/01/26 03:41:02;;;;;;;;;;;9.70;99.90;;;;;;2616904;47;19938;-74
2024/01/26 03:43:32;;;;;;;;;;;9.70;99.90;;;;;;2617809;47;19934;-74
2024/01/26 03:46:02;;;;;;;;;;;9.70;99.90;;;;;;2617037;47;19953;-74
2024/01/26 03:48:31;;;;;;;;;;;9.70;99.90;;;;;;2617477;47;19973;-74
2024/01/26 03:51:01;;;;;;;;;;;9.70;99.90;;;;;;2617793;54;19946;-73
2024/01/26 03:53:33;;;;;;;;;;;9.70;99.90;;;;;;2616231;47;19939;-74
2024/01/26 03:56:03;;;;;;;;;;;9.80;99.90;;;;;;2616444;54;19935;-73
2024/01/26 03:58:32;;;;;;;;;;;9.70;99.90;;;;;;2615252;54;19950;-73
2024/01/26 04:01:03;;;;;;;;;;;9.80;99.90;;;;;;2617687;47;19946;-74
2024/01/26 04:03:32;;;;;;;;;;;9.80;99.90;;;;;;2617296;54;19975;-75
2024/01/26 04:06:04;;;;;;;;;;;9.80;99.90;;;;;;2618717;54;19951;-75
2024/01/26 04:08:37;;;;;;;;;;;9.70;99.90;;;;;;2619415;54;19957;-73
2024/01/26 04:11:06;;;;;;;;;;;9.80;99.90;;;;;;2617517;39;20444;-73
2024/01/26 04:13:36;;;;;;;;;;;9.80;99.90;;;;;;2617125;54;19945;-73
2024/01/26 04:16:06;;;;;;;;;;;9.80;99.90;;;;;;2617564;47;19954;-73
2024/01/26 04:18:36;;;;;;;;;;;9.80;99.90;;;;;;2616967;54;19949;-73
2024/01/26 04:21:06;;;;;;;;;;;9.80;99.90;;;;;;2618297;54;19950;-73
2024/01/26 04:23:38;;;;;;;;;;;9.80;99.90;;;;;;2617152;47;19941;-73
2024/01/26 04:26:08;;;;;;;;;;;9.80;99.90;;;;;;2616092;54;19947;-73
2024/01/26 04:28:38;;;;;;;;;;;9.80;99.90;;;;;;2618098;47;19969;-73
2024/01/26 04:31:07;;;;;;;;;;;9.80;99.90;;;;;;2617548;47;19939;-73
2024/01/26 04:33:37;;;;;;;;;;;9.80;99.90;;;;;;2616479;39;20668;-73
2024/01/26 04:36:09;;;;;;;;;;;9.80;99.90;;;;;;2616221;47;20025;-74
2024/01/26 04:38:42;;;;;;;;;;;9.80;99.90;;;;;;2616981;54;19953;-73
2024/01/26 04:41:11;;;;;;;;;;;10.10;99.90;;;;;;2616140;46;19996;-73
2024/01/26 04:43:41;;;;;;;;;;;9.90;99.90;;;;;;2618018;54;19946;-73
2024/01/26 04:46:11;;;;;;;;;;;9.90;99.90;;;;;;2619110;47;19955;-72
2024/01/26 04:48:40;;;;;;;;;;;9.90;99.90;;;;;;2621793;54;19946;-73
2024/01/26 04:51:10;;;;;;;;;;;9.90;99.90;;;;;;2620205;54;20000;-74
2024/01/26 04:53:43;;;;;;;;;;;9.90;99.90;;;;;;2618580;47;19947;-74
2024/01/26 04:56:13;;;;;;;;;;;9.90;99.90;;;;;;2616342;47;20013;-74
2024/01/26 04:58:42;;;;;;;;;;;9.90;99.90;;;;;;2616867;54;19947;-74
2024/01/26 05:01:12;;;;;;;;;;;9.90;99.90;;;;;;2617668;54;20030;-73
2024/01/26 05:03:42;;;;;;;;;;;9.90;99.90;;;;;;2617268;39;20367;-73
2024/01/26 05:06:12;;;;;;;;;;;10.00;99.90;;;;;;2616979;47;19939;-74
2024/01/26 05:08:44;;;;;;;;;;;10.00;99.90;;;;;;2617048;54;19969;-75
2024/01/26 05:11:16;;;;;;;;;;;10.00;99.90;;;;;;2618096;47;20026;-74
2024/01/26 05:13:46;;;;;;;;;;;10.00;99.90;;;;;;2617685;54;20042;-73
2024/01/26 05:16:15;;;;;;;;;;;10.00;99.90;;;;;;2617645;54;19946;-72
2024/01/26 05:18:45;;;;;;;;;;;10.00;99.90;;;;;;2617220;54;19938;-73
2024/01/26 05:21:15;;;;;;;;;;;9.90;99.90;;;;;;2619983;47;19934;-72
2024/01/26 05:23:47;;;;;;;;;;;10.00;99.90;;;;;;2621646;54;19953;-72
2024/01/26 05:26:18;;;;;;;;;;;10.00;99.90;;;;;;2614301;47;19957;-72
2024/01/26 05:28:48;;;;;;;;;;;10.00;99.90;;;;;;2619058;54;19961;-72
2024/01/26 05:31:17;;;;;;;;;;;10.00;99.90;;;;;;2605454;47;19954;-74
2024/01/26 05:33:47;;;;;;;;;;;10.00;99.90;;;;;;2595696;47;19951;-75
2024/01/26 05:36:17;;;;;;;;;;;10.00;99.90;;;;;;2595861;39;20802;-75
2024/01/26 05:38:49;;;;;;;;;;;10.00;99.90;;;;;;2595447;54;19951;-73
2024/01/26 05:41:19;;;;;;;;;;;10.00;99.90;;;;;;2600834;47;20679;-73
2024/01/26 05:43:48;;;;;;;;;;;10.00;99.90;;;;;;2596616;47;19950;-73
2024/01/26 05:46:18;;;;;;;;;;;10.00;99.90;;;;;;2599733;54;19958;-70
2024/01/26 05:48:48;;;;;;;;;;;10.00;99.90;;;;;;2599217;54;19957;-72
2024/01/26 05:51:18;;;;;;;;;;;10.00;99.90;;;;;;2596858;46;19962;-72
2024/01/26 05:53:50;;;;;;;;;;;10.00;99.90;;;;;;2598838;46;19951;-71
2024/01/26 05:56:20;;;;;;;;;;;10.00;99.90;;;;;;2597449;39;20385;-74
2024/01/26 05:58:50;;;;;;;;;;;9.90;99.90;;;;;;2598640;39;20397;-75
2024/01/26 06:01:19;;;;;;;;;;;9.90;99.90;;;;;;2599579;47;21163;-73
2024/01/26 06:03:49;;;;;;;;;;;9.90;99.90;;;;;;2602876;46;19946;-72
2024/01/26 06:06:20;;;;;;;;;;;9.90;99.90;;;;;;2604727;48;19952;-71
2024/01/26 06:08:52;;;;;;;;;;;9.90;99.90;;;;;;2605767;54;19950;-71
2024/01/26 06:11:23;;;;;;;;;;;9.90;99.90;;;;;;2603407;47;19968;-72
2024/01/26 06:13:53;;;;;;;;;;;9.90;99.90;;;;;;2603781;47;19938;-73
2024/01/26 06:16:23;;;;;;;;;;;10.00;99.90;;;;;;2601839;54;19947;-74
2024/01/26 06:18:53;;;;;;;;;;;9.90;99.90;;;;;;2600584;54;19961;-75
2024/01/26 06:21:23;;;;;;;;;;;9.90;99.90;;;;;;2599819;47;19946;-73
2024/01/26 06:23:55;;;;;;;;;;;9.90;99.90;;;;;;2598765;54;19946;-75
2024/01/26 06:26:25;;;;;;;;;;;9.90;99.90;;;;;;2599247;47;20479;-75
2024/01/26 06:28:55;;;;;;;;;;;9.90;99.90;;;;;;2600403;47;19950;-75
2024/01/26 06:31:26;;;;;;;;;;;9.90;99.90;;;;;;2600606;47;20374;-73
2024/01/26 06:33:56;;;;;;;;;;;9.90;99.90;;;;;;2599925;54;19947;-75
2024/01/26 06:36:26;;;;;;;;;;;9.90;99.90;;;;;;2600348;54;20601;-74
2024/01/26 06:38:58;;;;;;;;;;;9.90;99.90;;;;;;2600618;47;20565;-75
2024/01/26 06:41:28;;;;;;;;;;;9.90;99.90;;;;;;2607277;47;19946;-75
2024/01/26 06:43:58;;;;;;;;;;;9.90;99.90;;;;;;2604213;47;19954;-74
2024/01/26 06:46:28;;;;;;;;;;;9.90;99.90;;;;;;2599306;54;19943;-76
2024/01/26 06:48:57;;;;;;;;;;;9.90;99.90;;;;;;2598321;54;19947;-73
2024/01/26 06:51:27;;;;;;;;;;;9.90;99.90;;;;;;2598403;47;19955;-74
2024/01/26 06:54:01;;;;;;;;;;;9.90;99.90;;;;;;2597674;54;20470;-75
2024/01/26 06:56:31;;;;;;;;;;;9.90;99.90;;;;;;2599140;54;19967;-75
2024/01/26 06:59:01;;;;;;;;;;;9.90;99.90;;;;;;2599072;47;19981;-74
2024/01/26 07:01:31;;;;;;;;;;;9.90;99.90;;;;;;2596820;47;19939;-73
2024/01/26 07:04:01;;;;;;;;;;;10.00;99.90;;;;;;2598243;39;20133;-74
2024/01/26 07:06:31;;;;;;;;;;;10.30;99.90;;;;;;2598272;54;20426;-73
2024/01/26 07:09:03;;;;;;;;;;;10.00;99.90;;;;;;2597332;47;20045;-74
2024/01/26 07:11:34;;;;;;;;;;;10.00;99.90;;;;;;2600194;47;20510;-78
2024/01/26 07:14:04;;;;;;;;;;;10.20;99.90;;;;;;2600442;39;20473;-75
2024/01/26 07:16:34;;;;;;;;;;;10.00;99.90;;;;;;2600071;47;22392;-76
2024/01/26 07:19:03;;;;;;;;;;;10.00;99.90;;;;;;2599412;39;20347;-76
2024/01/26 07:21:34;;;;;;;;;;;10.00;99.90;;;;;;2599106;39;20434;-77
2024/01/26 07:24:06;;;;;;;;;;;10.00;99.90;;;;;;2604244;54;19966;-76
2024/01/26 07:26:37;;;;;;;;;;;10.00;99.90;;;;;;2617470;47;20474;-76
2024/01/26 07:29:07;;;;;;;;;;;10.00;99.90;;;;;;2617915;47;20450;-79
2024/01/26 07:31:37;;;;;;;;;;;10.00;99.90;;;;;;2619447;54;19953;-75
2024/01/26 07:34:06;;;;;;;;;;;10.00;99.90;;;;;;2618510;47;19950;-74
2024/01/26 07:36:37;;;;;;;;;;;10.00;99.90;;;;;;2618338;54;19946;-75
2024/01/26 07:39:10;;;;;;;;;;;10.00;99.90;;;;;;2621636;47;19947;-75
2024/01/26 07:41:39;;;;;;;;;;;10.00;99.90;;;;;;2623250;49;19987;-75
2024/01/26 07:44:09;;;;;;;;;;;10.10;99.90;;;;;;2621724;54;19946;-75
2024/01/26 07:46:41;;;;;;;;;;;10.10;99.90;;;;;;2620730;47;19938;-75
2024/01/26 07:49:11;;;;;;;;;;;10.10;99.90;;;;;;2617095;47;19963;-74
2024/01/26 07:51:41;;;;;;;;;;;10.10;99.90;;;;;;2619044;39;20407;-75
2024/01/26 07:54:13;;;;;;;;;;;10.10;99.90;;;;;;2619151;47;19947;-77
2024/01/26 07:56:43;;;;;;;;;;;8.70;99.90;;;;;;2620040;54;19958;-76
2024/01/26 07:59:12;;;;;;;;;;;10.40;99.90;;;;;;2617704;54;19957;-77
2024/01/26 08:01:42;;;;;;;;;;;10.10;99.90;;;;;;2618270;47;19950;-75
2024/01/26 08:04:13;;;;;;;;;;;10.20;99.90;;;;;;2618402;54;20450;-75
2024/01/26 08:06:43;;;;;;;;;;;10.20;99.90;;;;;;2618014;54;19947;-75
2024/01/26 08:09:15;;;;;;;;;;;10.20;99.90;;;;;;2616940;54;19953;-78
2024/01/26 08:11:45;;;;;;;;;;;10.20;99.90;;;;;;2618583;54;19943;-75
2024/01/26 08:14:15;;;;;;;;;;;10.20;99.90;;;;;;2618097;39;20434;-75
2024/01/26 08:16:45;;;;;;;;;;;10.40;99.90;;;;;;2617944;47;19954;-79
2024/01/26 08:19:15;;;;;;;;;;;10.10;99.90;;;;;;2620194;39;20206;-78
2024/01/26 08:21:45;;;;;;;;;;;10.10;99.90;;;;;;2620463;51;19966;-77
2024/01/26 08:24:17;;;;;;;;;;;10.10;99.90;;;;;;2616843;47;19947;-76
2024/01/26 08:26:47;;;;;;;;;;;10.30;99.90;;;;;;2618343;51;19939;-77
2024/01/26 08:29:17;;;;;;;;;;;10.10;99.90;;;;;;2617661;47;19945;-76
2024/01/26 08:31:46;;;;;;;;;;;10.10;99.90;;;;;;2617873;46;19967;-76
2024/01/26 08:34:16;;;;;;;;;;;10.20;99.90;;;;;;2620125;46;19977;-75
2024/01/26 08:36:46;;;;;;;;;;;10.10;99.90;;;;;;2622554;47;19939;-76
2024/01/26 08:39:18;;;;;;;;;;;10.20;99.90;;;;;;2620968;47;19976;-76
2024/01/26 08:41:48;;;;;;;;;;;10.20;99.90;;;;;;2619035;54;19939;-76
2024/01/26 08:44:18;;;;;;;;;;;10.20;99.90;;;;;;2617278;47;19992;-77
2024/01/26 08:46:48;;;;;;;;;;;10.20;99.90;;;;;;2618896;54;19945;-77
2024/01/26 08:49:19;;;;;;;;;;;10.20;99.90;;;;;;2617522;54;20465;-76
2024/01/26 08:51:51;;;;;;;;;;;10.70;99.90;;;;;;2617180;47;19946;-60
2024/01/26 08:54:23;;;;;;;;;;;10.50;99.90;;;;;;2615432;47;19938;-60
2024/01/26 08:56:53;;;;;;;;;;;10.20;99.90;;;;;;2616874;54;19969;-75
2024/01/26 08:59:23;;;;;;;;;;;10.20;99.90;;;;;;2616910;54;19980;-75
2024/01/26 09:01:53;;;;;;;;;;;10.20;99.90;;;;;;2617121;54;19946;-76
2024/01/26 09:04:22;;;;;;;;;;;10.30;99.90;;;;;;2620724;51;19950;-77
2024/01/26 09:06:52;;;;;;;;;;;10.30;99.90;;;;;;2623835;47;19954;-76
2024/01/26 09:09:35;;;;;;;;;;;10.30;99.90;;;;;;2624554;47;20455;-78
2024/01/26 09:12:05;;;;;;;;;;;10.30;99.90;;;;;;2625441;31;20469;-77
2024/01/26 09:14:35;;;;;;;;;;;10.30;99.90;;;;;;2620417;47;19950;-77
2024/01/26 09:17:06;;;;;;;;;;;10.40;99.90;;;;;;2619291;39;20375;-77
2024/01/26 09:19:35;;;;;;;;;;;10.40;99.90;;;;;;2620002;47;20012;-76
2024/01/26 09:22:06;;;;;;;;;;;10.30;99.90;;;;;;2619081;47;19995;-77
2024/01/26 09:24:39;;;;;;;;;;;10.40;99.90;;;;;;2617837;54;19939;-77
2024/01/26 09:27:08;;;;;;;;;;;10.40;99.90;;;;;;2619586;47;19950;-77
2024/01/26 09:29:38;;;;;;;;;;;10.40;99.90;;;;;;2617469;47;20008;-76
2024/01/26 09:32:08;;;;;;;;;;;10.50;99.90;;;;;;2617021;54;19947;-77
2024/01/26 09:34:38;;;;;;;;;;;10.50;99.90;;;;;;2618600;39;20358;-77
2024/01/26 09:37:08;;;;;;;;;;;10.40;99.90;;;;;;2619343;47;19951;-76
2024/01/26 09:39:40;;;;;;;;;;;10.50;99.90;;;;;;2617314;54;19948;-74
2024/01/26 09:42:10;;;;;;;;;;;10.50;99.90;;;;;;2617868;54;19938;-76
2024/01/26 09:44:40;;;;;;;;;;;10.50;99.90;;;;;;2607135;47;20755;-74
2024/01/26 09:47:10;;;;;;;;;;;10.50;99.90;;;;;;2596619;47;19947;-75
2024/01/26 09:49:40;;;;;;;;;;;10.50;99.90;;;;;;2597784;47;19954;-76
2024/01/26 09:52:11;;;;;;;;;;;10.40;99.90;;;;;;2599382;54;19957;-74
2024/01/26 09:54:44;;;;;;;;;;;10.50;99.90;;;;;;2599152;47;19951;-77
2024/01/26 09:57:14;;;;;;;;;;;10.50;99.90;;;;;;2597554;47;19958;-74
2024/01/26 09:59:50;;;;;;;;;;;10.20;99.90;;;;;;2598687;47;19955;-74
2024/01/26 10:02:20;;;;;;;;;;;10.50;99.90;;;;;;2598615;47;19951;-73
2024/01/26 10:04:50;;;;;;;;;;;10.50;99.90;;;;;;2600694;54;19958;-74
2024/01/26 10:07:21;;;;;;;;;;;10.50;99.90;;;;;;2599603;39;20256;-73
2024/01/26 10:09:53;;;;;;;;;;;10.50;99.90;;;;;;2598959;54;19950;-75
2024/01/26 10:12:25;;;;;;;;;;;10.50;99.90;;;;;;2598468;47;19957;-73
2024/01/26 10:15:03;;;;;;;;;;;10.50;99.90;;;;;;2599310;54;20039;-74
2024/01/26 10:17:33;;;;;;;;;;;10.50;99.90;;;;;;2599267;54;19950;-73
2024/01/26 10:20:13;;;;;;;;;;;10.10;99.90;;;;;;2606474;51;20459;-74
2024/01/26 10:22:44;;;;;;;;;;;10.50;99.90;;;;;;2616595;54;19958;-74
2024/01/26 10:25:18;;;;;;;;;;;10.60;99.90;;;;;;2616144;47;19938;-74
2024/01/26 10:27:48;;;;;;;;;;;10.60;99.90;;;;;;2616706;54;19958;-74
2024/01/26 10:30:19;;;;;;;;;;;10.60;99.90;;;;;;2617911;54;20053;-74
2024/01/26 10:32:53;;;;;;;;;;;10.60;99.90;;;;;;2617979;47;20089;-75
2024/01/26 10:35:24;;;;;;;;;;;10.60;99.90;;;;;;2617603;47;19957;-75
2024/01/26 10:37:54;;;;;;;;;;;10.70;99.90;;;;;;2616841;54;19953;-75
2024/01/26 10:40:27;;;;;;;;;;;10.70;99.90;;;;;;2618294;54;19945;-74
2024/01/26 10:42:57;;;;;;;;;;;10.70;99.90;;;;;;2619999;47;19942;-76
2024/01/26 10:45:27;;;;;;;;;;;10.80;99.90;;;;;;2618910;54;20041;-75
2024/01/26 10:47:58;;;;;;;;;;;10.80;99.90;;;;;;2618999;47;19947;-76
2024/01/26 10:50:28;;;;;;;;;;;10.80;99.90;;;;;;2618664;47;19939;-72
2024/01/26 10:53:00;;;;;;;;;;;10.80;99.90;;;;;;2618966;47;19938;-71
2024/01/26 10:55:32;;;;;;;;;;;10.80;99.90;;;;;;2616959;54;19959;-72
2024/01/26 10:58:05;;;;;;;;;;;10.80;99.90;;;;;;2615733;47;19954;-71
2024/01/26 11:00:35;;;;;;;;;;;10.80;99.90;;;;;;2616071;47;20560;-72
2024/01/26 11:03:05;;;;;;;;;;;10.80;99.90;;;;;;2617141;47;19947;-72
2024/01/26 11:05:36;;;;;;;;;;;10.80;99.90;;;;;;2617035;47;19946;-73
2024/01/26 11:08:10;;;;;;;;;;;10.80;99.90;;;;;;2620631;54;20454;-73
2024/01/26 11:10:43;;;;;;;;;;;10.80;99.90;;;;;;2619475;54;20026;-74
2024/01/26 11:13:16;;;;;;;;;;;10.80;99.90;;;;;;2621163;47;19946;-75
2024/01/26 11:15:47;;;;;;;;;;;10.80;99.90;;;;;;2621252;54;19988;-76
2024/01/26 11:18:24;;;;;;;;;;;10.80;99.90;;;;;;2621295;54;19950;-75
2024/01/26 11:20:55;;;;;;;;;;;10.90;99.90;;;;;;2625256;47;19950;-77
2024/01/26 11:23:25;;;;;;;;;;;9.80;99.90;;;;;;2626965;54;20466;-76
2024/01/26 11:25:59;;;;;;;;;;;10.90;99.90;;;;;;2624476;47;19950;-76
2024/01/26 11:28:29;;;;;;;;;;;11.00;99.90;;;;;;2626130;54;20003;-77
2024/01/26 11:30:59;;;;;;;;;;;11.00;99.90;;;;;;2619737;54;20006;-77
2024/01/26 11:33:37;;;;;;;;;;;11.00;99.90;;;;;;2620710;47;20017;-77
2024/01/26 11:36:10;;;;;;;;;;;10.60;99.90;;;;;;2620390;39;20361;-77
2024/01/26 11:38:40;;;;;;;;;;;11.00;99.90;;;;;;2619751;46;19946;-77
2024/01/26 11:41:13;;;;;;;;;;;11.10;99.90;;;;;;2620785;47;20054;-77
2024/01/26 11:43:45;;;;;;;;;;;11.10;99.90;;;;;;2619549;47;19958;-79
2024/01/26 11:46:16;;;;;;;;;;;11.20;99.90;;;;;;2593606;54;19957;-75
2024/01/26 11:48:46;;;;;;;;;;;11.30;99.90;;;;;;2601946;54;19965;-77
2024/01/26 11:51:17;;;;;;;;;;;11.20;99.90;;;;;;2601099;54;19955;-77
2024/01/26 11:53:47;;;;;;;;;;;11.30;99.90;;;;;;2602006;54;19961;-72
2024/01/26 11:56:20;;;;;;;;;;;11.30;99.90;;;;;;2605237;39;20176;-73
2024/01/26 11:58:50;;;;;;;;;;;11.30;99.90;;;;;;2605860;54;20030;-74
2024/01/26 12:01:20;;;;;;;;;;;11.30;99.90;;;;;;2622360;39;20369;-75
2024/01/26 12:03:50;;;;;;;;;;;11.80;99.90;;;;;;2615639;47;20891;-73
2024/01/26 12:06:21;;;;;;;;;;;11.30;99.90;;;;;;2618118;54;20084;-74
2024/01/26 12:08:51;;;;;;;;;;;11.30;99.90;;;;;;2617724;47;19946;-73
2024/01/26 12:11:23;;;;;;;;;;;11.30;99.90;;;;;;2616686;54;19954;-73
2024/01/26 12:13:54;;;;;;;;;;;11.40;99.90;;;;;;2618378;47;19971;-72
2024/01/26 12:16:24;;;;;;;;;;;11.40;99.90;;;;;;2617788;54;19943;-73
2024/01/26 12:18:57;;;;;;;;;;;11.40;99.90;;;;;;2617745;46;19947;-74
2024/01/26 12:21:28;;;;;;;;;;;11.50;99.90;;;;;;2617729;54;19951;-75
2024/01/26 12:23:58;;;;;;;;;;;11.60;99.90;;;;;;2620856;47;19939;-72
2024/01/26 12:26:31;;;;;;;;;;;11.60;99.90;;;;;;2619427;47;19947;-74
2024/01/26 12:29:01;;;;;;;;;;;11.70;99.90;;;;;;2618382;47;20002;-73
2024/01/26 12:31:31;;;;;;;;;;;11.80;99.90;;;;;;2616249;47;20456;-72
2024/01/26 12:34:01;;;;;;;;;;;11.80;99.90;;;;;;2618532;47;19964;-74
2024/01/26 12:36:33;;;;;;;;;;;11.90;99.90;;;;;;2618347;54;19984;-74
2024/01/26 12:39:03;;;;;;;;;;;12.00;99.90;;;;;;2618849;54;19946;-74
2024/01/26 12:41:36;;;;;;;;;;;12.10;99.90;;;;;;2618007;47;19942;-75
2024/01/26 12:44:06;;;;;;;;;;;12.20;99.90;;;;;;2617820;46;19987;-74
2024/01/26 12:46:36;;;;;;;;;;;12.30;99.90;;;;;;2618406;54;19935;-75
2024/01/26 12:49:06;;;;;;;;;;;12.30;99.90;;;;;;2619177;47;19950;-77
2024/01/26 12:51:35;;;;;;;;;;;12.20;99.90;;;;;;2618060;54;19955;-75
2024/01/26 12:54:05;;;;;;;;;;;12.40;99.90;;;;;;2618198;46;19939;-74
2024/01/26 12:56:37;;;;;;;;;;;12.40;99.90;;;;;;2617802;31;20480;-71
2024/01/26 12:59:08;;;;;;;;;;;12.40;99.90;;;;;;2614129;54;20018;-72
2024/01/26 13:01:39;;;;;;;;;;;12.30;99.90;;;;;;2614650;47;19938;-72
2024/01/26 13:04:10;;;;;;;;;;;12.40;99.90;;;;;;2615960;47;19946;-73
2024/01/26 13:06:41;;;;;;;;;;;12.30;99.90;;;;;;2614824;47;20041;-73
2024/01/26 13:09:11;;;;;;;;;;;12.30;99.90;;;;;;2615190;47;19996;-76
2024/01/26 13:11:44;;;;;;;;;;;12.30;99.90;;;;;;2616306;54;20028;-79
2024/01/26 13:14:13;;;;;;;;;;;12.30;99.90;;;;;;2615877;54;19953;-76
2024/01/26 13:16:43;;;;;;;;;;;12.30;99.90;;;;;;2616045;54;19953;-73
2024/01/26 13:19:14;;;;;;;;;;;12.20;99.90;;;;;;2616386;46;20437;-75
2024/01/26 13:21:46;;;;;;;;;;;12.20;99.90;;;;;;2617100;47;19957;-76
2024/01/26 13:24:16;;;;;;;;;;;12.10;99.90;;;;;;2614905;54;19956;-74
2024/01/26 13:26:49;;;;;;;;;;;12.10;99.90;;;;;;2617680;54;19954;-75
2024/01/26 13:29:19;;;;;;;;;;;12.10;99.90;;;;;;2616067;47;19934;-74
2024/01/26 13:31:49;;;;;;;;;;;12.10;99.90;;;;;;2617985;54;20042;-74
2024/01/26 13:34:19;;;;;;;;;;;12.10;99.90;;;;;;2617469;39;20361;-75
2024/01/26 13:36:49;;;;;;;;;;;12.00;99.90;;;;;;2616924;54;19961;-74
2024/01/26 13:39:19;;;;;;;;;;;11.80;99.90;;;;;;2615873;54;19957;-75
2024/01/26 13:41:53;;;;;;;;;;;11.50;99.90;;;;;;2618422;47;20014;-74
2024/01/26 13:44:23;;;;;;;;;;;11.30;99.90;;;;;;2618120;54;20003;-75
2024/01/26 13:46:53;;;;;;;;;;;11.20;99.90;;;;;;2617115;47;19946;-72
2024/01/26 13:49:22;;;;;;;;;;;11.00;99.90;;;;;;2618452;47;19954;-76
2024/01/26 13:51:52;;;;;;;;;;;11.00;99.90;;;;;;2617367;54;19953;-77
2024/01/26 13:54:22;;;;;;;;;;;10.90;99.90;;;;;;2608202;54;19958;-75
2024/01/26 13:56:56;;;;;;;;;;;10.90;99.90;;;;;;2592976;54;20045;-74
2024/01/26 13:59:26;;;;;;;;;;;10.80;99.90;;;;;;2616717;47;20443;-74
2024/01/26 14:01:56;;;;;;;;;;;10.80;99.90;;;;;;2616614;47;19954;-74
2024/01/26 14:04:25;;;;;;;;;;;10.80;99.90;;;;;;2617929;47;19951;-72
2024/01/26 14:06:56;;;;;;;;;;;10.70;99.90;;;;;;2615339;54;19951;-71
2024/01/26 14:09:26;;;;;;;;;;;10.80;99.90;;;;;;2612109;39;20087;-71
2024/01/26 14:11:59;;;;;;;;;;;10.60;99.90;;;;;;2616284;39;20378;-71
2024/01/26 14:14:29;;;;;;;;;;;10.70;99.90;;;;;;2615874;54;19957;-72
2024/01/26 14:16:59;;;;;;;;;;;10.70;99.90;;;;;;2616435;46;19950;-74
2024/01/26 14:19:29;;;;;;;;;;;10.80;99.90;;;;;;2614545;50;19966;-74
2024/01/26 14:22:03;;;;;;;;;;;10.70;99.90;;;;;;2615794;47;20022;-75
2024/01/26 14:24:34;;;;;;;;;;;10.70;99.90;;;;;;2616168;39;21072;-77
2024/01/26 14:27:12;;;;;;;;;;;10.70;99.90;;;;;;2617451;46;20443;-77
2024/01/26 14:29:43;;;;;;;;;;;10.60;99.90;;;;;;2617327;47;19953;-77
2024/01/26 14:32:13;;;;;;;;;;;10.50;99.90;;;;;;2617529;47;20448;-77
2024/01/26 14:34:42;;;;;;;;;;;10.60;99.90;;;;;;2616072;54;19954;-77
2024/01/26 14:37:12;;;;;;;;;;;10.60;99.90;;;;;;2615327;54;19995;-75
2024/01/26 14:39:44;;;;;;;;;;;10.50;99.90;;;;;;2616355;47;20030;-75
2024/01/26 14:42:16;;;;;;;;;;;10.50;99.90;;;;;;2617758;39;20355;-75